Time;durP1;ratioP1;P1;durP2;ratioP2;P2;SDS_P1;SDS_P2;PMS_P1;PMS_P2;Temp;Humidity;BMP_temperature;BMP_pressure;BME280_temperature;BME280_humidity;BME280_pressure;Samples;Min_cycle;Max_cycle;Signal;HPM_P1;HPM_P2
2022/04/24 08:09:49;;;;;;;10.23;7.75;;;;;;;13.34;51.65;100217.22;5353230;27;20714;-77
2022/04/24 08:12:21;;;;;;;9.60;8.70;;;;;;;13.41;50.87;100214.78;5283954;28;20115;-77
2022/04/24 08:14:52;;;;;;;9.75;8.65;;;;;;;13.45;50.58;100224.13;5274810;28;20124;-77
2022/04/24 08:17:26;;;;;;;9.35;8.45;;;;;;;13.56;49.97;100221.88;5287011;28;20040;-78
2022/04/24 08:20:01;;;;;;;9.85;7.93;;;;;;;13.57;49.87;100225.47;5281984;28;20029;-77
2022/04/24 08:23:02;;;;;;;8.73;8.02;;;;;;;13.80;49.82;100218.59;5284057;28;20103;-79
2022/04/24 08:26:03;;;;;;;9.93;7.82;;;;;;;13.80;49.78;100215.00;5279799;28;20048;-80
2022/04/24 08:28:34;;;;;;;8.82;8.02;;;;;;;13.85;48.80;100218.44;5269890;28;20551;-80
2022/04/24 08:31:11;;;;;;;10.50;8.63;;;;;;;13.83;48.51;100215.19;5291309;28;20119;-80
2022/04/24 08:33:43;;;;;;;10.65;9.43;;;;;;;13.93;48.59;100216.81;5284361;28;20066;-80
2022/04/24 08:42:52;;;;;;;11.18;8.30;;;;;;;14.38;50.46;100224.03;5278315;28;19916;-80
2022/04/24 08:45:26;;;;;;;9.85;8.85;;;;;;;14.41;47.29;100229.75;5280805;28;20036;-81
2022/04/24 08:47:58;;;;;;;9.35;8.43;;;;;;;14.44;47.77;100228.25;5279261;28;20472;-80
2022/04/24 08:50:32;;;;;;;9.95;8.63;;;;;;;14.48;47.56;100227.28;5280121;28;20392;-79
2022/04/24 08:53:04;;;;;;;12.57;9.10;;;;;;;14.66;47.31;100216.94;5279048;28;20480;-80
2022/04/24 08:55:35;;;;;;;10.13;9.13;;;;;;;14.71;46.50;100227.09;5278790;28;20453;-80
2022/04/24 08:58:08;;;;;;;10.18;9.18;;;;;;;14.84;46.76;100225.25;5269103;28;20056;-79
2022/04/24 09:00:43;;;;;;;9.65;8.80;;;;;;;14.91;46.83;100228.34;5279096;28;20490;-79
2022/04/24 09:03:15;;;;;;;10.35;9.35;;;;;;;15.16;46.34;100227.44;5278043;28;20029;-78
2022/04/24 09:05:49;;;;;;;10.32;9.20;;;;;;;15.22;46.27;100231.66;5283505;28;20051;-77
2022/04/24 09:08:24;;;;;;;10.38;8.80;;;;;;;15.21;45.99;100229.19;5276678;28;20052;-78
2022/04/24 09:10:57;;;;;;;10.13;9.13;;;;;;;15.29;45.80;100225.56;5264073;28;20021;-81
2022/04/24 09:13:31;;;;;;;10.40;8.85;;;;;;;15.49;45.55;100223.94;5265552;28;20290;-80
2022/04/24 09:16:02;;;;;;;11.07;8.60;;;;;;;15.56;44.28;100220.63;5264671;28;20021;-80
2022/04/24 09:18:41;;;;;;;10.80;9.15;;;;;;;15.57;45.07;100234.28;5264928;28;20470;-77
2022/04/24 09:21:13;;;;;;;10.85;9.32;;;;;;;15.56;43.97;100234.59;5264590;28;20051;-78
2022/04/24 09:23:44;;;;;;;8.77;7.93;;;;;;;15.62;44.84;100225.69;5264276;28;20025;-78
2022/04/24 09:26:16;;;;;;;10.70;8.57;;;;;;;15.65;43.59;100227.81;5263928;28;20110;-78
2022/04/24 09:28:47;;;;;;;11.52;9.60;;;;;;;15.68;44.00;100222.72;5264556;28;20124;-82
2022/04/24 09:31:19;;;;;;;13.20;9.77;;;;;;;15.70;44.34;100231.56;5263698;28;20485;-80
2022/04/24 09:33:51;;;;;;;10.70;9.60;;;;;;;15.74;43.44;100235.34;5264041;28;20021;-83
2022/04/24 09:36:28;;;;;;;10.82;9.38;;;;;;;15.78;43.52;100230.72;5265555;28;20024;-82
2022/04/24 09:38:59;;;;;;;9.40;8.52;;;;;;;15.90;43.74;100228.00;5263640;28;20037;-82
2022/04/24 09:41:31;;;;;;;11.32;10.13;;;;;;;16.07;43.04;100222.25;5265419;28;20143;-83
2022/04/24 09:44:13;;;;;;;10.25;9.25;;;;;;;16.11;43.58;100222.41;5264034;28;20031;-83
2022/04/24 09:46:44;;;;;;;10.10;9.02;;;;;;;16.16;42.70;100235.38;5265145;28;20391;-82
2022/04/24 09:49:16;;;;;;;10.75;9.02;;;;;;;16.15;42.20;100230.91;5265220;28;20052;-78
2022/04/24 09:51:49;;;;;;;12.32;9.32;;;;;;;16.26;42.22;100224.56;5263576;28;20357;-79
2022/04/24 09:54:20;;;;;;;10.32;9.25;;;;;;;16.34;41.46;100234.06;5263707;28;20073;-77
2022/04/24 09:56:52;;;;;;;10.50;9.50;;;;;;;16.20;42.30;100227.91;5264058;28;20032;-77
2022/04/24 09:59:25;;;;;;;31.50;28.15;;;;;;;16.29;42.03;100237.06;5263068;28;20082;-77
2022/04/24 10:01:56;;;;;;;14.07;11.77;;;;;;;16.34;42.04;100228.47;5262820;28;20545;-77
2022/04/24 10:04:28;;;;;;;11.48;10.35;;;;;;;16.41;42.03;100234.31;5263462;28;20108;-77
2022/04/24 10:06:59;;;;;;;11.63;10.45;;;;;;;16.36;41.71;100230.91;5262836;28;20032;-77
2022/04/24 10:09:32;;;;;;;10.52;9.50;;;;;;;16.45;41.73;100240.03;5262878;28;20392;-76
2022/04/24 10:12:06;;;;;;;10.60;9.60;;;;;;;16.53;42.81;100236.31;5261598;28;20064;-77
2022/04/24 10:14:44;;;;;;;11.65;10.52;;;;;;;16.68;41.89;100229.25;5261931;28;20021;-75
2022/04/24 10:17:44;;;;;;;10.65;9.75;;;;;;;16.78;42.16;100226.06;5262922;28;20388;-77
2022/04/24 10:20:24;;;;;;;11.02;9.88;;;;;;;16.83;42.89;100230.63;5260390;28;20403;-79
2022/04/24 10:22:58;;;;;;;10.38;9.38;;;;;;;16.93;41.17;100239.38;5263071;28;20029;-79
2022/04/24 10:25:32;;;;;;;12.00;10.80;;;;;;;16.90;40.50;100237.28;5264241;28;20503;-78
2022/04/24 10:28:16;;;;;;;13.23;11.90;;;;;;;16.81;40.22;100233.75;5263654;28;20111;-78
2022/04/24 10:31:01;;;;;;;11.85;10.65;;;;;;;16.78;41.40;100230.84;5264502;28;20382;-79
2022/04/24 10:33:34;;;;;;;12.85;10.38;;;;;;;16.89;40.04;100234.81;5262543;28;20420;-76
2022/04/24 10:36:15;;;;;;;12.82;10.65;;;;;;;16.89;40.19;100240.41;5262541;28;20017;-75
2022/04/24 10:38:56;;;;;;;12.05;11.05;;;;;;;17.01;39.85;100248.03;5262770;28;20036;-76
2022/04/24 10:41:32;;;;;;;11.40;10.27;;;;;;;17.01;39.63;100242.44;5263489;28;20029;-74
2022/04/24 10:44:09;;;;;;;11.82;10.02;;;;;;;17.09;39.82;100244.31;5265063;28;20025;-73
2022/04/24 10:46:42;;;;;;;11.80;10.57;;;;;;;17.08;39.90;100248.28;5265817;28;20388;-75
2022/04/24 10:49:16;;;;;;;10.55;9.30;;;;;;;17.18;40.41;100242.22;5249810;28;20082;-74
2022/04/24 10:52:04;;;;;;;10.07;8.75;;;;;;;17.26;39.52;100244.09;5264989;28;20025;-74
2022/04/24 10:54:38;;;;;;;11.05;9.00;;;;;;;17.16;39.35;100241.75;5268743;28;20025;-77
2022/04/24 10:57:19;;;;;;;13.00;11.82;;;;;;;17.21;39.06;100247.13;5263515;28;20056;-76
2022/04/24 10:59:53;;;;;;;19.00;17.25;;;;;;;17.20;39.05;100250.28;5263278;28;20061;-78
2022/04/24 11:02:33;;;;;;;18.95;16.20;;;;;;;17.31;38.30;100240.25;5262364;28;20116;-76
2022/04/24 11:05:07;;;;;;;9.50;8.10;;;;;;;17.37;37.81;100256.47;5263264;28;20055;-75
2022/04/24 11:07:38;;;;;;;10.32;9.43;;;;;;;17.34;37.94;100240.34;5263075;28;20132;-74
2022/04/24 11:10:11;;;;;;;8.45;7.65;;;;;;;17.47;37.92;100238.38;5261550;28;20104;-73
2022/04/24 11:12:48;;;;;;;8.52;7.63;;;;;;;17.59;38.19;100243.97;5262728;28;20021;-73
2022/04/24 11:15:19;;;;;;;9.25;8.35;;;;;;;17.59;38.66;100248.78;5262865;28;20457;-75
2022/04/24 11:17:51;;;;;;;8.80;7.90;;;;;;;17.72;38.25;100241.16;5261807;28;20082;-75
2022/04/24 11:20:31;;;;;;;11.02;8.68;;;;;;;17.75;38.44;100241.25;5262423;28;20079;-75
2022/04/24 11:23:02;;;;;;;9.88;8.57;;;;;;;17.74;38.10;100244.41;5261529;28;20029;-75
2022/04/24 11:25:38;;;;;;;9.10;8.27;;;;;;;17.81;38.93;100241.88;5262569;28;20419;-74
2022/04/24 11:28:10;;;;;;;12.27;10.52;;;;;;;17.69;38.72;100248.28;5262449;28;20029;-74
2022/04/24 11:30:41;;;;;;;10.02;9.05;;;;;;;17.79;38.83;100253.47;5261783;28;20487;-75
2022/04/24 11:33:13;;;;;;;10.20;8.80;;;;;;;17.79;38.14;100256.25;5261250;28;20036;-75
2022/04/24 11:35:44;;;;;;;8.60;7.70;;;;;;;17.85;38.06;100254.03;5260985;28;20017;-75
2022/04/24 11:38:15;;;;;;;8.82;7.85;;;;;;;17.95;38.17;100239.50;5260472;28;20086;-75
2022/04/24 11:40:47;;;;;;;8.48;7.38;;;;;;;18.03;38.01;100243.34;5261981;28;20017;-75
2022/04/24 11:43:19;;;;;;;9.10;7.78;;;;;;;18.14;38.22;100238.88;5261369;28;20024;-75
2022/04/24 11:51:34;;;;;;;8.15;7.35;;;;;;;18.24;37.44;100237.56;5261368;28;20108;-73
2022/04/24 11:54:10;;;;;;;8.32;7.53;;;;;;;18.21;37.65;100244.69;5261994;28;20464;-75
2022/04/24 11:56:42;;;;;;;13.23;7.70;;;;;;;18.25;38.21;100244.78;5262316;28;20071;-74
2022/04/24 11:59:19;;;;;;;11.85;10.55;;;;;;;18.27;38.00;100241.63;5261062;28;20071;-75
2022/04/24 12:01:58;;;;;;;8.27;7.47;;;;;;;18.45;38.33;100242.97;5261856;28;20029;-76
2022/04/24 12:04:33;;;;;;;8.30;7.57;;;;;;;18.35;37.85;100246.28;5262282;28;20510;-76
2022/04/24 12:07:09;;;;;;;9.00;7.22;;;;;;;18.55;37.54;100236.03;5261510;28;20068;-76
2022/04/24 12:09:40;;;;;;;7.50;6.90;;;;;;;18.37;36.70;100241.94;5262025;28;20092;-77
2022/04/24 12:12:16;;;;;;;9.48;7.45;;;;;;;18.49;36.88;100243.06;5261699;28;20136;-77
2022/04/24 12:14:49;;;;;;;8.75;7.97;;;;;;;18.49;37.01;100255.13;5253481;28;20025;-77
2022/04/24 12:17:24;;;;;;;9.13;8.07;;;;;;;18.68;36.76;100249.63;5262157;28;20033;-77
2022/04/24 12:19:56;;;;;;;8.25;7.47;;;;;;;18.77;36.71;100243.91;5261015;28;20071;-77
2022/04/24 12:22:30;;;;;;;7.90;6.82;;;;;;;18.85;36.73;100253.31;5251942;28;20083;-77
2022/04/24 12:25:12;;;;;;;8.50;7.25;;;;;;;19.06;35.91;100251.06;5255950;28;20116;-77
2022/04/24 12:27:55;;;;;;;9.57;8.68;;;;;;;19.05;36.03;100257.06;5261059;28;20033;-74
2022/04/24 12:30:33;;;;;;;9.45;7.07;;;;;;;19.27;36.18;100264.06;5262067;28;20037;-76
2022/04/24 12:33:05;;;;;;;8.07;7.28;;;;;;;19.24;35.09;100250.72;5260889;28;20095;-75
2022/04/24 12:35:37;;;;;;;7.25;6.65;;;;;;;19.34;34.68;100256.63;5261543;28;20071;-76
2022/04/24 12:38:15;;;;;;;9.65;5.97;;;;;;;19.42;34.48;100265.22;5261651;28;20484;-76
2022/04/24 12:40:58;;;;;;;7.25;6.65;;;;;;;19.45;34.03;100256.06;5260924;28;20120;-76
2022/04/24 12:43:30;;;;;;;8.75;7.63;;;;;;;19.31;33.77;100257.34;5262037;28;20055;-76
2022/04/24 12:46:02;;;;;;;8.18;7.38;;;;;;;19.57;35.81;100252.34;5265649;28;20021;-76
2022/04/24 12:48:48;;;;;;;7.07;6.38;;;;;;;19.76;34.65;100260.84;5265019;28;20079;-76
2022/04/24 12:51:23;;;;;;;12.25;11.00;;;;;;;19.81;33.95;100266.19;5265464;28;20055;-75
2022/04/24 12:53:57;;;;;;;9.65;8.10;;;;;;;19.72;34.12;100269.22;5265679;28;20110;-75
2022/04/24 12:56:29;;;;;;;7.28;6.65;;;;;;;19.40;33.77;100262.78;5265788;28;20025;-76
2022/04/24 12:59:01;;;;;;;10.57;7.18;;;;;;;19.26;34.32;100274.47;5265539;28;20125;-76
2022/04/24 13:01:33;;;;;;;10.65;8.18;;;;;;;19.47;33.68;100264.94;5263866;28;20100;-76
2022/04/24 13:04:04;;;;;;;7.00;6.35;;;;;;;19.57;33.47;100266.41;5265802;28;20059;-77
2022/04/24 13:06:36;;;;;;;7.05;6.35;;;;;;;19.68;33.37;100259.06;5265759;28;20025;-76
2022/04/24 13:09:10;;;;;;;8.43;7.18;;;;;;;19.64;33.26;100256.13;5264659;28;20126;-77
2022/04/24 13:11:44;;;;;;;9.25;5.70;;;;;;;19.50;33.66;100259.41;5265520;28;20456;-76
2022/04/24 13:14:15;;;;;;;6.38;5.78;;;;;;;19.35;34.40;100274.28;5265698;28;20033;-76
2022/04/24 13:19:37;;;;;;;6.65;5.72;;;;;;;19.38;32.74;100267.97;5265311;28;20036;-77
2022/04/24 13:22:09;;;;;;;6.53;6.00;;;;;;;19.21;33.71;100262.69;5264286;28;20461;-77
2022/04/24 13:24:41;;;;;;;7.10;5.30;;;;;;;19.10;34.16;100268.84;5265127;28;20155;-77
2022/04/24 13:27:12;;;;;;;6.38;5.80;;;;;;;19.10;33.90;100274.47;5264943;28;20520;-77
2022/04/24 13:29:43;;;;;;;5.82;5.28;;;;;;;19.02;34.72;100272.66;5264293;28;20040;-76
2022/04/24 13:32:15;;;;;;;8.82;5.35;;;;;;;18.98;35.25;100271.75;5264744;28;20044;-77
2022/04/24 13:34:46;;;;;;;5.75;5.25;;;;;;;19.20;33.77;100273.13;5264823;28;20048;-77
2022/04/24 13:40:08;;;;;;;6.75;6.18;;;;;;;19.29;31.69;100267.31;5265106;28;20034;-76
2022/04/24 13:42:39;;;;;;;9.00;8.10;;;;;;;19.25;32.72;100270.06;5264280;28;20468;-77
2022/04/24 13:45:10;;;;;;;5.45;4.88;;;;;;;18.89;32.57;100279.50;5264036;28;20029;-76
2022/04/24 13:47:42;;;;;;;6.07;5.35;;;;;;;18.81;33.85;100272.06;5262415;28;20032;-76
2022/04/24 13:50:13;;;;;;;5.93;5.22;;;;;;;18.71;33.86;100269.75;5248934;28;20033;-76
2022/04/24 13:52:46;;;;;;;7.75;5.93;;;;;;;18.72;34.22;100265.78;5264953;28;20447;-76
2022/04/24 13:55:17;;;;;;;6.03;5.53;;;;;;;19.00;34.52;100275.00;5264129;28;20064;-74
2022/04/24 13:57:49;;;;;;;5.72;5.15;;;;;;;19.10;33.08;100277.28;5264048;28;20110;-75
2022/04/24 14:00:21;;;;;;;6.47;4.57;;;;;;;19.09;33.36;100272.03;5264405;28;20025;-75
2022/04/24 14:02:53;;;;;;;6.93;5.03;;;;;;;19.01;33.23;100279.44;5264807;28;20079;-75
2022/04/24 14:05:25;;;;;;;5.60;4.78;;;;;;;19.03;33.32;100279.91;5263821;28;20033;-76
2022/04/24 14:07:58;;;;;;;6.88;5.43;;;;;;;19.37;33.68;100282.38;5263855;28;20052;-77
2022/04/24 14:10:29;;;;;;;6.45;5.38;;;;;;;19.35;33.58;100282.72;5264079;28;20029;-76
2022/04/24 14:13:03;;;;;;;7.80;5.45;;;;;;;19.25;33.51;100286.91;5263625;28;20392;-75
2022/04/24 14:15:35;;;;;;;6.75;5.55;;;;;;;19.39;33.53;100291.25;5263909;28;20469;-76
2022/04/24 14:18:07;;;;;;;5.72;5.07;;;;;;;19.25;34.00;100288.88;5265033;28;20048;-76
2022/04/24 14:20:38;;;;;;;5.60;5.10;;;;;;;18.91;33.23;100288.41;5263330;28;20044;-77
2022/04/24 14:23:10;;;;;;;6.95;5.10;;;;;;;18.97;33.68;100286.13;5248917;28;20433;-77
2022/04/24 14:25:41;;;;;;;6.70;5.00;;;;;;;19.02;34.43;100289.53;5262965;28;20028;-79
2022/04/24 14:28:15;;;;;;;5.20;4.72;;;;;;;19.30;34.42;100289.47;5264731;28;20031;-79
2022/04/24 14:30:47;;;;;;;5.95;5.32;;;;;;;19.06;33.42;100284.81;5264387;28;20027;-78
2022/04/24 14:33:18;;;;;;;4.80;4.40;;;;;;;19.06;32.97;100290.41;5263760;28;20384;-75
2022/04/24 14:35:49;;;;;;;6.30;4.55;;;;;;;19.27;32.84;100289.34;5268736;28;20055;-76
2022/04/24 14:38:21;;;;;;;5.32;4.40;;;;;;;19.45;33.63;100282.19;5275698;28;20124;-76
2022/04/24 14:40:54;;;;;;;4.80;4.40;;;;;;;19.52;32.72;100285.16;5263004;28;20104;-80
2022/04/24 14:43:26;;;;;;;5.05;4.55;;;;;;;19.41;31.81;100300.97;5264381;28;20233;-79
2022/04/24 14:57:20;;;;;;;5.15;4.18;;;;;;;19.39;29.55;100300.50;5263563;28;20037;-76
2022/04/24 14:59:57;;;;;;;4.20;3.80;;;;;;;19.51;30.15;100302.44;5263106;28;20029;-76
2022/04/24 15:02:30;;;;;;;8.15;4.60;;;;;;;19.34;31.30;100312.84;5262505;28;20036;-77
2022/04/24 15:05:03;;;;;;;6.57;4.43;;;;;;;19.19;32.12;100310.84;5263250;28;20067;-78
2022/04/24 15:07:34;;;;;;;4.60;4.15;;;;;;;19.05;32.38;100311.28;5258865;28;20055;-77
2022/04/24 15:10:06;;;;;;;4.95;4.45;;;;;;;18.87;32.52;100310.78;5248367;28;20022;-76
2022/04/24 15:12:38;;;;;;;4.68;4.28;;;;;;;18.85;33.02;100307.53;5261364;28;20480;-75
2022/04/24 15:15:11;;;;;;;5.55;4.45;;;;;;;18.75;32.61;100307.19;5261608;28;20048;-75
2022/04/24 15:17:43;;;;;;;5.30;4.43;;;;;;;18.80;32.71;100307.78;5261480;28;20039;-73
2022/04/24 15:20:16;;;;;;;5.90;4.57;;;;;;;18.89;32.04;100310.41;5262748;28;20476;-74
2022/04/24 15:22:48;;;;;;;4.72;3.97;;;;;;;18.94;32.62;100304.53;5261578;28;20492;-74
2022/04/24 15:25:19;;;;;;;4.70;4.22;;;;;;;19.13;31.59;100306.66;5262531;28;20029;-74
2022/04/24 15:27:51;;;;;;;5.00;4.55;;;;;;;19.11;31.08;100309.00;5262308;28;20032;-75
2022/04/24 15:30:22;;;;;;;5.90;3.78;;;;;;;19.32;31.96;100306.75;5261950;28;20017;-76
2022/04/24 15:32:54;;;;;;;6.88;4.57;;;;;;;19.29;31.40;100326.34;5261766;28;20158;-77
2022/04/24 15:35:27;;;;;;;4.70;4.10;;;;;;;19.20;31.66;100326.53;5262194;28;20479;-75
2022/04/24 15:37:58;;;;;;;4.75;3.97;;;;;;;19.07;31.29;100331.41;5260973;28;20033;-76
2022/04/24 15:40:30;;;;;;;4.65;4.10;;;;;;;19.13;30.84;100323.53;5262287;28;20031;-75
2022/04/24 15:43:02;;;;;;;8.75;4.65;;;;;;;19.10;30.68;100325.06;5261800;28;20031;-76
2022/04/24 15:45:34;;;;;;;4.55;4.03;;;;;;;19.00;31.16;100319.97;5261756;28;20025;-77
2022/04/24 15:48:05;;;;;;;5.70;4.45;;;;;;;18.67;31.05;100323.84;5278984;28;20034;-77
2022/04/24 15:50:37;;;;;;;5.00;4.05;;;;;;;18.55;31.03;100323.88;5261300;28;20036;-76
2022/04/24 15:53:09;;;;;;;5.18;3.50;;;;;;;18.42;31.15;100322.28;5261625;28;20528;-75
2022/04/24 15:55:40;;;;;;;4.75;3.80;;;;;;;18.24;31.36;100328.16;5261150;28;20025;-76
2022/04/24 15:58:11;;;;;;;4.20;3.85;;;;;;;18.39;31.22;100328.63;5260774;28;20043;-75
2022/04/24 16:00:42;;;;;;;4.95;4.45;;;;;;;18.55;31.77;100321.06;5262851;28;20025;-75
2022/04/24 16:03:16;;;;;;;4.85;4.30;;;;;;;18.64;31.64;100329.34;5261692;28;20028;-75
2022/04/24 16:05:47;;;;;;;4.70;4.03;;;;;;;18.84;31.82;100321.91;5259469;28;20029;-76
2022/04/24 16:08:22;;;;;;;5.47;4.45;;;;;;;18.88;31.55;100334.06;5260504;28;20048;-75
2022/04/24 16:10:54;;;;;;;6.25;4.55;;;;;;;18.80;32.00;100333.06;5261712;28;20040;-75
2022/04/24 16:13:25;;;;;;;7.32;3.90;;;;;;;18.78;32.19;100328.97;5261608;28;20432;-79
2022/04/24 16:15:57;;;;;;;5.28;3.88;;;;;;;18.79;32.20;100336.22;5261532;28;20055;-78
2022/04/24 16:18:31;;;;;;;4.38;3.38;;;;;;;18.79;31.96;100344.63;5260869;28;20388;-78
2022/04/24 16:21:03;;;;;;;5.22;3.72;;;;;;;19.01;31.47;100349.69;5264465;28;20535;-78
2022/04/24 16:23:35;;;;;;;5.75;3.55;;;;;;;18.77;32.69;100339.41;5265660;28;20025;-77
2022/04/24 16:26:06;;;;;;;5.05;3.50;;;;;;;18.99;31.97;100351.22;5265925;28;20029;-78
2022/04/24 16:28:37;;;;;;;4.45;3.63;;;;;;;19.01;31.75;100346.06;5266251;28;20112;-77
2022/04/24 16:31:08;;;;;;;5.22;4.72;;;;;;;18.75;32.02;100346.50;5261096;28;20085;-78
2022/04/24 16:33:40;;;;;;;6.90;3.92;;;;;;;18.52;32.01;100338.63;5265232;28;20029;-78
2022/04/24 16:36:12;;;;;;;4.75;3.78;;;;;;;18.63;32.06;100350.19;5266750;28;20029;-78
2022/04/24 16:38:43;;;;;;;5.95;3.80;;;;;;;18.59;32.87;100344.47;5266755;28;20082;-79
2022/04/24 16:41:16;;;;;;;5.57;4.15;;;;;;;18.59;31.98;100349.28;5266199;28;20456;-79
2022/04/24 16:43:48;;;;;;;3.83;3.53;;;;;;;18.47;32.15;100358.53;5267017;28;20108;-78
2022/04/24 16:46:19;;;;;;;5.85;3.80;;;;;;;18.36;32.36;100352.59;5267953;28;20081;-77
2022/04/24 16:48:50;;;;;;;5.95;3.85;;;;;;;18.47;32.77;100347.31;5267946;28;20215;-77
2022/04/24 16:59:52;;;;;;;4.65;3.45;;;;;;;19.00;31.47;100352.88;5283728;28;20069;-78
2022/04/24 17:02:23;;;;;;;5.88;3.53;;;;;;;19.06;31.10;100360.69;5276568;28;20029;-78
2022/04/24 17:05:00;;;;;;;3.55;3.25;;;;;;;19.03;30.80;100352.97;5265702;28;20499;-78
2022/04/24 17:07:33;;;;;;;7.68;3.33;;;;;;;19.00;31.24;100358.50;5250717;28;20041;-79
2022/04/24 17:10:05;;;;;;;2.95;2.75;;;;;;;19.01;31.55;100362.94;5265474;28;20025;-78
2022/04/24 17:12:38;;;;;;;3.70;3.30;;;;;;;19.09;31.24;100368.38;5266147;28;20128;-79
2022/04/24 17:15:10;;;;;;;4.55;3.28;;;;;;;18.98;31.84;100369.28;5264965;28;20078;-79
2022/04/24 17:17:44;;;;;;;4.13;3.60;;;;;;;18.96;31.93;100368.81;5270177;28;20029;-79
2022/04/24 17:20:16;;;;;;;3.92;3.40;;;;;;;18.82;32.05;100370.03;5265766;28;20460;-79
2022/04/24 17:22:47;;;;;;;5.00;3.30;;;;;;;18.50;32.45;100385.91;5265157;28;20013;-80
2022/04/24 17:25:18;;;;;;;4.38;3.83;;;;;;;18.18;33.48;100382.09;5254500;28;20120;-79
2022/04/24 17:27:50;;;;;;;4.80;3.05;;;;;;;18.16;33.73;100376.03;5263985;28;20079;-79
